createdAt,value
2018-10-17T00:02:03.322Z,73.70
2018-10-17T00:04:51.104Z,74.00
2018-10-17T00:07:39.572Z,73.90
2018-10-17T00:10:27.572Z,73.80
2018-10-17T00:13:16.410Z,73.70
2018-10-17T00:16:05.758Z,74.10
2018-10-17T00:18:54.358Z,73.40
2018-10-17T00:21:42.613Z,74.00
2018-10-17T00:24:31.112Z,74.20
2018-10-17T00:27:19.020Z,74.30
2018-10-17T00:30:07.395Z,74.00
2018-10-17T00:32:55.835Z,74.10
2018-10-17T00:35:44.293Z,73.80
2018-10-17T00:38:32.002Z,74.30
2018-10-17T00:41:20.067Z,74.90
2018-10-17T00:44:08.831Z,75.20
2018-10-17T00:46:58.259Z,75.20
2018-10-17T00:49:46.715Z,75.10
2018-10-17T00:52:34.432Z,74.70
2018-10-17T00:55:22.723Z,74.50
2018-10-17T00:58:11.029Z,74.60
2018-10-17T01:01:01.732Z,75.40
2018-10-17T01:03:50.124Z,74.90
2018-10-17T01:06:38.364Z,74.40
2018-10-17T01:09:26.607Z,74.20
2018-10-17T01:12:14.547Z,73.80
2018-10-17T01:16:30.552Z,73.90
2018-10-17T01:19:18.376Z,73.70
2018-10-17T01:22:06.934Z,74.00
2018-10-17T01:24:54.893Z,74.10
2018-10-17T01:27:42.803Z,73.70
2018-10-17T01:30:30.997Z,74.20
2018-10-17T01:33:19.606Z,75.10
2018-10-17T01:36:10.814Z,74.50
2018-10-17T01:38:59.939Z,73.90
2018-10-17T01:41:49.352Z,74.00
2018-10-17T01:44:38.186Z,74.00
2018-10-17T01:47:25.711Z,73.80
2018-10-17T01:50:13.836Z,73.90
2018-10-17T01:53:01.724Z,73.90
2018-10-17T01:55:50.275Z,74.80
2018-10-17T01:58:39.500Z,75.30
2018-10-17T02:01:29.734Z,74.70
2018-10-17T02:04:17.010Z,75.20
2018-10-17T02:07:05.866Z,75.40
2018-10-17T02:09:54.106Z,75.10
2018-10-17T02:12:42.567Z,75.10
2018-10-17T02:15:30.637Z,74.90
2018-10-17T02:18:19.165Z,74.50
2018-10-17T02:21:07.020Z,74.40
2018-10-17T02:23:55.665Z,74.90
2018-10-17T02:26:45.355Z,74.50
2018-10-17T02:29:33.396Z,75.20
2018-10-17T02:32:21.616Z,74.30
2018-10-17T02:35:14.749Z,74.20
2018-10-17T02:38:02.404Z,73.80
2018-10-17T02:40:50.466Z,74.40
2018-10-17T02:43:38.299Z,74.30
2018-10-17T02:46:27.027Z,74.20
2018-10-17T02:49:16.380Z,74.10
2018-10-17T02:52:04.445Z,74.40
2018-10-17T02:54:51.866Z,74.80
2018-10-17T02:57:40.649Z,74.80
2018-10-17T03:00:30.864Z,74.90
2018-10-17T03:03:18.656Z,75.30
2018-10-17T03:06:07.405Z,72.50
2018-10-17T03:08:54.833Z,68.80
2018-10-17T03:11:44.740Z,66.50
2018-10-17T03:14:33.139Z,65.60
2018-10-17T03:17:21.546Z,64.60
2018-10-17T03:20:11.827Z,67.40
2018-10-17T03:23:03.817Z,70.10
2018-10-17T03:25:52.389Z,72.00
2018-10-17T03:28:40.332Z,73.30
2018-10-17T03:31:29.414Z,72.80
2018-10-17T03:34:17.772Z,73.30
2018-10-17T03:37:06.597Z,74.20
2018-10-17T03:39:54.946Z,73.70
2018-10-17T03:42:43.690Z,74.20
2018-10-17T03:45:31.711Z,74.80
2018-10-17T03:48:22.672Z,75.30
2018-10-17T03:51:12.867Z,74.50
2018-10-17T03:54:01.614Z,74.50
2018-10-17T03:56:50.117Z,75.00
2018-10-17T03:59:38.592Z,74.90
2018-10-17T04:02:26.021Z,74.80
2018-10-17T04:05:14.249Z,75.30
2018-10-17T04:08:01.678Z,74.50
2018-10-17T04:10:50.262Z,74.30
2018-10-17T04:13:38.140Z,74.40
2018-10-17T04:16:26.856Z,74.30
2018-10-17T04:19:15.466Z,74.60
2018-10-17T04:22:05.600Z,74.20
2018-10-17T04:24:54.068Z,74.20
2018-10-17T04:27:41.754Z,74.40
2018-10-17T04:30:29.678Z,73.90
2018-10-17T04:33:17.967Z,74.00
2018-10-17T04:36:10.446Z,73.90
2018-10-17T04:39:05.306Z,74.00
2018-10-17T04:41:53.947Z,74.00
2018-10-17T04:44:42.875Z,73.90
2018-10-17T04:47:44.866Z,74.20
2018-10-17T04:50:40.371Z,73.80
2018-10-17T04:53:47.799Z,73.90
2018-10-17T04:56:37.041Z,73.20
2018-10-17T04:59:33.192Z,73.40
2018-10-17T05:06:51.562Z,73.30
2018-10-17T05:09:46.636Z,73.40
2018-10-17T05:12:37.589Z,72.30
2018-10-17T05:15:35.383Z,72.30
2018-10-17T05:18:34.988Z,72.60
2018-10-17T05:24:46.681Z,72.60
2018-10-17T05:27:42.519Z,72.30
2018-10-17T05:30:40.296Z,72.00
2018-10-17T05:33:41.428Z,71.60
2018-10-17T05:36:33.291Z,72.50
2018-10-17T05:39:23.763Z,72.50
2018-10-17T05:42:17.438Z,72.50
2018-10-17T05:45:12.489Z,71.40
2018-10-17T05:51:24.635Z,71.10
2018-10-17T05:54:18.750Z,67.20
2018-10-17T05:57:16.569Z,70.30
2018-10-17T06:00:53.298Z,70.00
2018-10-17T06:03:55.800Z,69.00
2018-10-17T06:09:12.259Z,67.90
2018-10-17T06:12:02.554Z,67.50
2018-10-17T06:15:04.460Z,68.00
2018-10-17T06:18:33.441Z,67.80
2018-10-17T06:25:17.958Z,65.10
2018-10-17T06:28:11.047Z,66.30
2018-10-17T06:31:00.448Z,63.70
2018-10-17T06:33:51.134Z,65.30
2018-10-17T06:36:46.014Z,63.70
2018-10-17T06:39:40.055Z,63.80
2018-10-17T06:56:48.873Z,64.30
2018-10-17T07:14:20.470Z,63.20
2018-10-17T07:20:26.962Z,63.30
2018-10-17T07:23:29.387Z,62.70
2018-10-17T07:26:23.956Z,63.30
2018-10-17T07:29:15.893Z,63.10
2018-10-17T07:32:17.725Z,62.50
2018-10-17T07:35:10.757Z,63.00
2018-10-17T07:38:00.481Z,62.10
2018-10-17T07:40:48.619Z,62.80
2018-10-17T07:43:37.457Z,63.00
2018-10-17T07:46:45.289Z,62.50
2018-10-17T07:49:53.436Z,61.70
2018-10-17T07:52:45.744Z,60.20
2018-10-17T07:55:41.571Z,61.80
2018-10-17T08:01:48.438Z,60.80
2018-10-17T08:04:42.256Z,62.00
2018-10-17T08:07:43.758Z,62.50
2018-10-17T08:10:37.979Z,62.60
2018-10-17T08:13:34.807Z,59.70
2018-10-17T08:16:25.387Z,61.10
2018-10-17T08:22:06.405Z,58.70
2018-10-17T08:25:01.621Z,59.80
2018-10-17T08:27:57.117Z,60.40
2018-10-17T08:30:47.800Z,60.00
2018-10-17T08:33:41.418Z,60.00
2018-10-17T08:36:38.202Z,60.20
2018-10-17T08:39:30.924Z,60.70
2018-10-17T08:42:22.169Z,59.80
2018-10-17T08:45:15.863Z,61.10
2018-10-17T08:48:11.463Z,61.10
2018-10-17T08:52:30.549Z,59.90
2018-10-17T08:55:21.311Z,62.00
2018-10-17T08:58:13.649Z,61.70
2018-10-17T09:01:08.513Z,61.10
2018-10-17T09:04:06.217Z,61.40
2018-10-17T09:07:04.300Z,60.90
2018-10-17T09:09:56.712Z,61.30
2018-10-17T09:12:49.803Z,61.30
2018-10-17T11:51:09.264Z,65.30
2018-10-17T12:03:49.379Z,59.00
2018-10-17T12:06:44.256Z,63.80
2018-10-17T12:09:37.086Z,63.10
2018-10-17T12:12:28.657Z,63.90
2018-10-17T12:15:26.829Z,64.20
2018-10-17T12:18:36.834Z,64.20
2018-10-17T12:21:38.591Z,64.10
2018-10-17T12:24:39.552Z,64.10
2018-10-17T12:27:32.055Z,64.30
2018-10-17T12:30:26.814Z,64.30
2018-10-17T12:33:17.791Z,64.20
2018-10-17T12:36:08.890Z,64.20
2018-10-17T12:39:01.002Z,64.30
2018-10-17T12:41:51.220Z,64.40
2018-10-17T12:44:44.635Z,62.10
2018-10-17T12:47:36.855Z,63.30
2018-10-17T12:50:34.073Z,64.00
2018-10-17T12:53:24.493Z,64.20
2018-10-17T12:56:15.513Z,64.30
2018-10-17T12:59:08.053Z,64.60
2018-10-17T13:01:58.955Z,64.40
2018-10-17T13:04:49.887Z,64.60
2018-10-17T13:07:40.903Z,64.70
2018-10-17T13:10:31.049Z,64.70
2018-10-17T13:13:24.965Z,65.00
2018-10-17T13:16:14.495Z,65.00
2018-10-17T13:19:06.478Z,65.10
2018-10-17T13:21:55.456Z,64.90
2018-10-17T13:24:56.519Z,65.10
2018-10-17T13:27:47.630Z,65.30
2018-10-17T13:30:39.162Z,65.20
2018-10-17T13:33:32.813Z,65.30
2018-10-17T13:36:23.679Z,65.50
2018-10-17T13:39:16.890Z,65.80
2018-10-17T13:42:07.429Z,65.80
2018-10-17T13:44:57.340Z,65.90
2018-10-17T13:47:47.966Z,66.00
2018-10-17T13:50:39.083Z,66.00
2018-10-17T13:53:27.724Z,66.00
2018-10-17T13:56:17.857Z,66.10
2018-10-17T13:59:06.674Z,66.40
2018-10-17T14:01:56.425Z,65.90
2018-10-17T14:04:50.135Z,66.20
2018-10-17T14:07:40.742Z,66.60
2018-10-17T14:10:31.578Z,67.00
2018-10-17T14:13:22.017Z,67.50
2018-10-17T14:16:13.600Z,67.40
2018-10-17T14:19:03.299Z,67.30
2018-10-17T14:21:56.170Z,67.80
2018-10-17T14:24:46.901Z,68.30
2018-10-17T14:27:36.781Z,68.50
2018-10-17T14:30:27.632Z,68.60
2018-10-17T14:33:20.607Z,69.00
2018-10-17T14:39:08.799Z,69.40
2018-10-17T14:41:59.297Z,69.60
2018-10-17T14:44:52.735Z,69.70
2018-10-17T14:47:45.914Z,69.40
2018-10-17T14:50:37.772Z,69.70
2018-10-17T14:53:30.626Z,69.90
2018-10-17T14:56:22.328Z,70.00
2018-10-17T14:59:15.780Z,69.60
2018-10-17T15:02:12.835Z,70.20
2018-10-17T15:05:05.533Z,70.10
2018-10-17T15:07:59.471Z,70.20
2018-10-17T15:10:50.686Z,70.40
2018-10-17T15:13:41.670Z,70.80
2018-10-17T15:16:33.430Z,70.90
2018-10-17T15:19:28.012Z,71.10
2018-10-17T15:22:19.744Z,70.80
2018-10-17T15:25:11.146Z,70.80
2018-10-17T15:28:04.275Z,71.00
2018-10-17T15:30:57.796Z,70.90
2018-10-17T15:33:52.150Z,71.00
2018-10-17T15:36:45.891Z,71.30
2018-10-17T15:39:39.165Z,71.20
2018-10-17T15:42:31.161Z,71.00
2018-10-17T15:45:21.457Z,71.40
2018-10-17T15:48:14.001Z,71.60
2018-10-17T15:51:04.006Z,71.40
2018-10-17T15:53:56.943Z,71.60
2018-10-17T15:56:53.406Z,71.50
2018-10-17T15:59:46.931Z,71.50
2018-10-17T16:02:41.942Z,71.50
2018-10-17T16:05:33.793Z,71.70
2018-10-17T16:08:27.693Z,71.70
2018-10-17T16:11:21.315Z,71.80
2018-10-17T16:14:13.573Z,71.90
2018-10-17T16:17:05.487Z,72.30
2018-10-17T16:19:59.553Z,71.90
2018-10-17T16:22:52.751Z,72.40
2018-10-17T16:25:49.006Z,72.70
2018-10-17T16:28:41.431Z,72.30
2018-10-17T16:31:35.609Z,72.60
2018-10-17T16:34:28.372Z,72.70
2018-10-17T16:37:21.520Z,73.00
2018-10-17T16:40:14.936Z,73.10
2018-10-17T16:43:10.104Z,72.90
2018-10-17T16:46:01.937Z,72.70
2018-10-17T16:48:53.801Z,72.80
2018-10-17T16:51:46.334Z,72.60
2018-10-17T16:54:39.617Z,72.90
2018-10-17T16:57:32.622Z,72.70
2018-10-17T17:00:29.297Z,73.20
2018-10-17T17:03:23.976Z,72.70
2018-10-17T17:06:16.735Z,72.80
2018-10-17T17:09:10.641Z,72.80
2018-10-17T17:12:04.439Z,73.20
2018-10-17T17:14:58.499Z,73.30
2018-10-17T17:17:51.635Z,73.70
2018-10-17T17:20:45.324Z,72.70
2018-10-17T17:23:39.797Z,73.10
2018-10-17T17:26:32.554Z,73.30
2018-10-17T17:29:26.091Z,72.30
2018-10-17T17:32:18.034Z,72.20
2018-10-17T17:35:10.085Z,72.10
2018-10-17T17:38:01.732Z,72.20
2018-10-17T17:40:50.853Z,72.40
2018-10-17T17:43:39.817Z,72.30
2018-10-17T17:46:29.326Z,72.30
2018-10-17T17:49:18.637Z,72.40
2018-10-17T17:52:09.073Z,72.60
2018-10-17T17:55:01.562Z,72.50
2018-10-17T17:57:51.219Z,72.40
2018-10-17T18:00:40.118Z,72.40
2018-10-17T18:03:28.447Z,72.40
2018-10-17T18:06:17.448Z,72.50
2018-10-17T18:09:06.060Z,72.50
2018-10-17T18:11:57.213Z,72.60
2018-10-17T18:14:47.916Z,72.70
2018-10-17T18:17:39.259Z,72.70
2018-10-17T18:20:30.222Z,72.70
2018-10-17T18:23:22.460Z,72.80
2018-10-17T18:26:14.457Z,73.10
2018-10-17T18:29:06.114Z,73.00
2018-10-17T18:31:54.926Z,73.10
2018-10-17T18:34:44.766Z,73.10
2018-10-17T18:37:33.355Z,73.10
2018-10-17T18:40:21.591Z,73.30
2018-10-17T18:43:14.720Z,73.30
2018-10-17T18:46:07.063Z,73.20
2018-10-17T18:48:55.511Z,73.30
2018-10-17T18:51:43.208Z,73.30
2018-10-17T18:54:31.687Z,73.60
2018-10-17T18:57:21.211Z,73.30
2018-10-17T19:00:10.177Z,73.40
2018-10-17T19:02:58.183Z,73.50
2018-10-17T19:05:46.192Z,73.40
2018-10-17T19:08:34.352Z,73.50
2018-10-17T19:11:27.390Z,73.40
2018-10-17T19:14:19.979Z,73.50
2018-10-17T19:17:11.289Z,73.30
2018-10-17T19:20:03.221Z,73.40
2018-10-17T19:22:55.061Z,73.30
2018-10-17T19:25:46.498Z,73.30
2018-10-17T19:28:37.438Z,73.20
2018-10-17T19:31:28.277Z,73.40
2018-10-17T19:34:21.122Z,73.40
2018-10-17T19:37:15.833Z,72.70
2018-10-17T19:40:07.628Z,73.50
2018-10-17T19:42:58.600Z,73.50
2018-10-17T19:45:50.353Z,73.50
2018-10-17T19:48:38.553Z,73.50
2018-10-17T19:51:27.039Z,73.50
2018-10-17T19:54:15.082Z,73.80
2018-10-17T19:57:03.726Z,73.60
2018-10-17T19:59:53.530Z,73.60
2018-10-17T20:02:45.380Z,73.60
2018-10-17T20:05:34.130Z,73.70
2018-10-17T20:08:22.832Z,73.60
2018-10-17T20:11:13.866Z,73.60
2018-10-17T20:14:02.553Z,73.70
2018-10-17T20:16:53.421Z,73.60
2018-10-17T20:19:44.813Z,73.60
2018-10-17T20:22:36.217Z,73.50
2018-10-17T20:25:27.177Z,73.70
2018-10-17T20:28:18.420Z,73.80
2018-10-17T20:31:10.193Z,73.80
2018-10-17T20:34:00.735Z,73.70
2018-10-17T20:36:50.660Z,73.80
2018-10-17T20:39:41.280Z,73.80
2018-10-17T20:42:31.386Z,73.90
2018-10-17T20:45:21.529Z,73.80
2018-10-17T20:48:12.141Z,73.90
2018-10-17T20:51:02.573Z,73.80
2018-10-17T20:53:53.612Z,74.00
2018-10-17T20:56:42.829Z,73.80
2018-10-17T20:59:32.632Z,73.90
2018-10-17T21:02:21.682Z,74.00
2018-10-17T21:05:12.540Z,74.20
2018-10-17T21:08:02.696Z,74.00
2018-10-17T21:10:52.410Z,74.10
2018-10-17T21:13:42.064Z,74.10
2018-10-17T21:16:32.291Z,74.10
2018-10-17T21:19:24.016Z,74.30
2018-10-17T21:22:13.780Z,74.20
2018-10-17T21:25:04.127Z,74.20
2018-10-17T21:27:54.439Z,74.30
2018-10-17T21:30:49.198Z,74.40
2018-10-17T21:33:41.165Z,74.30
2018-10-17T21:36:32.045Z,74.40
2018-10-17T21:39:22.512Z,74.30
2018-10-17T21:42:13.706Z,74.40
2018-10-17T21:45:03.831Z,74.40
2018-10-17T21:47:53.787Z,74.40
2018-10-17T21:50:43.245Z,74.50
2018-10-17T21:53:32.459Z,74.40
2018-10-17T21:56:21.494Z,74.50
2018-10-17T21:59:11.157Z,74.70
2018-10-17T22:01:59.101Z,74.60
2018-10-17T22:04:48.757Z,74.40
2018-10-17T22:07:39.846Z,74.50
2018-10-17T22:10:29.459Z,74.70
2018-10-17T22:13:20.850Z,74.60
2018-10-17T22:16:10.841Z,74.70
2018-10-17T22:19:01.105Z,74.80
2018-10-17T22:21:50.313Z,74.50
2018-10-17T22:24:41.222Z,74.80
2018-10-17T22:27:32.928Z,74.80
2018-10-17T22:30:23.256Z,74.70
2018-10-17T22:33:14.348Z,74.80
2018-10-17T22:36:05.492Z,74.80
2018-10-17T22:38:56.273Z,74.90
2018-10-17T22:41:45.695Z,74.80
2018-10-17T22:44:35.920Z,74.90
2018-10-17T22:47:25.180Z,74.90
2018-10-17T22:50:14.304Z,74.90
2018-10-17T22:53:05.485Z,74.60
2018-10-17T22:55:56.645Z,74.90
2018-10-17T22:58:47.265Z,75.00
2018-10-17T23:01:38.386Z,75.00
2018-10-17T23:04:26.731Z,75.60
2018-10-17T23:07:14.768Z,74.70
2018-10-17T23:10:03.166Z,75.10
2018-10-17T23:12:50.829Z,74.90
2018-10-17T23:15:41.240Z,74.80
2018-10-17T23:18:29.810Z,74.60
2018-10-17T23:21:17.343Z,75.00
2018-10-17T23:24:05.672Z,75.00
2018-10-17T23:26:53.163Z,75.00
2018-10-17T23:29:40.870Z,75.10
2018-10-17T23:32:28.832Z,75.00
2018-10-17T23:35:16.658Z,75.10
2018-10-17T23:38:04.362Z,75.10
2018-10-17T23:40:55.070Z,74.30
2018-10-17T23:43:45.479Z,75.00
2018-10-17T23:46:37.643Z,74.90
2018-10-17T23:49:28.117Z,75.10
2018-10-17T23:52:17.120Z,75.10
2018-10-17T23:55:05.389Z,74.00
2018-10-17T23:57:53.061Z,73.70
